sensor_id;sensor_type;location;lat;lon;timestamp;P1;durP1;ratioP1;P2;durP2;ratioP2
64851;SDS011;56050;55.558;-4.644;2023-05-21T00:00:50;6.72;;;2.58;;
64851;SDS011;56050;55.558;-4.644;2023-05-21T00:03:16;8.68;;;2.63;;
64851;SDS011;56050;55.558;-4.644;2023-05-21T00:05:42;10.95;;;3.33;;
64851;SDS011;56050;55.558;-4.644;2023-05-21T00:08:11;9.88;;;3.08;;
64851;SDS011;56050;55.558;-4.644;2023-05-21T00:10:36;6.85;;;3.25;;
64851;SDS011;56050;55.558;-4.644;2023-05-21T00:13:02;10.98;;;3.45;;
64851;SDS011;56050;55.558;-4.644;2023-05-21T00:15:27;10.93;;;2.65;;
64851;SDS011;56050;55.558;-4.644;2023-05-21T00:17:53;11.88;;;2.67;;
64851;SDS011;56050;55.558;-4.644;2023-05-21T00:20:18;13.80;;;2.85;;
64851;SDS011;56050;55.558;-4.644;2023-05-21T00:22:43;13.13;;;2.83;;
64851;SDS011;56050;55.558;-4.644;2023-05-21T00:25:09;11.65;;;2.95;;
64851;SDS011;56050;55.558;-4.644;2023-05-21T00:27:35;9.48;;;3.08;;
64851;SDS011;56050;55.558;-4.644;2023-05-21T00:30:02;9.18;;;2.70;;
64851;SDS011;56050;55.558;-4.644;2023-05-21T00:32:28;9.95;;;3.47;;
64851;SDS011;56050;55.558;-4.644;2023-05-21T00:34:53;10.18;;;3.78;;
64851;SDS011;56050;55.558;-4.644;2023-05-21T00:37:20;8.70;;;2.70;;
64851;SDS011;56050;55.558;-4.644;2023-05-21T00:39:45;9.13;;;3.35;;
64851;SDS011;56050;55.558;-4.644;2023-05-21T00:42:11;14.15;;;2.97;;
64851;SDS011;56050;55.558;-4.644;2023-05-21T00:44:37;8.95;;;2.97;;
64851;SDS011;56050;55.558;-4.644;2023-05-21T00:47:03;11.60;;;3.28;;
64851;SDS011;56050;55.558;-4.644;2023-05-21T00:49:30;9.95;;;2.97;;
64851;SDS011;56050;55.558;-4.644;2023-05-21T00:51:56;15.90;;;3.80;;
64851;SDS011;56050;55.558;-4.644;2023-05-21T00:54:22;11.05;;;2.25;;
64851;SDS011;56050;55.558;-4.644;2023-05-21T00:56:48;7.03;;;2.28;;
64851;SDS011;56050;55.558;-4.644;2023-05-21T00:59:15;9.48;;;3.10;;
64851;SDS011;56050;55.558;-4.644;2023-05-21T01:01:44;9.88;;;2.60;;
64851;SDS011;56050;55.558;-4.644;2023-05-21T01:04:10;7.55;;;2.47;;
64851;SDS011;56050;55.558;-4.644;2023-05-21T01:06:36;11.98;;;3.00;;
64851;SDS011;56050;55.558;-4.644;2023-05-21T01:09:02;9.55;;;2.42;;
64851;SDS011;56050;55.558;-4.644;2023-05-21T01:11:37;9.88;;;3.17;;
64851;SDS011;56050;55.558;-4.644;2023-05-21T01:14:05;9.25;;;2.75;;
64851;SDS011;56050;55.558;-4.644;2023-05-21T01:16:34;11.63;;;3.20;;
64851;SDS011;56050;55.558;-4.644;2023-05-21T01:19:01;11.15;;;2.58;;
64851;SDS011;56050;55.558;-4.644;2023-05-21T01:21:29;10.32;;;3.47;;
64851;SDS011;56050;55.558;-4.644;2023-05-21T01:23:55;9.77;;;3.08;;
64851;SDS011;56050;55.558;-4.644;2023-05-21T01:26:20;14.90;;;3.42;;
64851;SDS011;56050;55.558;-4.644;2023-05-21T01:28:46;7.60;;;3.55;;
64851;SDS011;56050;55.558;-4.644;2023-05-21T01:34:06;10.52;;;3.10;;
64851;SDS011;56050;55.558;-4.644;2023-05-21T01:36:37;9.70;;;3.08;;
64851;SDS011;56050;55.558;-4.644;2023-05-21T01:41:46;9.15;;;2.95;;
64851;SDS011;56050;55.558;-4.644;2023-05-21T01:44:14;10.77;;;3.10;;
64851;SDS011;56050;55.558;-4.644;2023-05-21T01:46:42;8.48;;;2.90;;
64851;SDS011;56050;55.558;-4.644;2023-05-21T01:49:08;11.55;;;2.58;;
64851;SDS011;56050;55.558;-4.644;2023-05-21T01:51:34;10.60;;;3.50;;
64851;SDS011;56050;55.558;-4.644;2023-05-21T01:54:01;10.82;;;2.20;;
64851;SDS011;56050;55.558;-4.644;2023-05-21T01:56:26;8.73;;;2.72;;
64851;SDS011;56050;55.558;-4.644;2023-05-21T01:58:53;12.55;;;3.13;;
64851;SDS011;56050;55.558;-4.644;2023-05-21T02:01:20;9.93;;;3.20;;
64851;SDS011;56050;55.558;-4.644;2023-05-21T02:03:46;12.85;;;2.90;;
64851;SDS011;56050;55.558;-4.644;2023-05-21T02:06:11;7.82;;;2.70;;
64851;SDS011;56050;55.558;-4.644;2023-05-21T02:08:37;10.43;;;3.22;;
64851;SDS011;56050;55.558;-4.644;2023-05-21T02:11:02;10.88;;;2.70;;
64851;SDS011;56050;55.558;-4.644;2023-05-21T02:13:28;10.50;;;3.33;;
64851;SDS011;56050;55.558;-4.644;2023-05-21T02:15:53;9.52;;;2.63;;
64851;SDS011;56050;55.558;-4.644;2023-05-21T02:18:20;10.63;;;3.30;;
64851;SDS011;56050;55.558;-4.644;2023-05-21T02:20:45;6.97;;;2.50;;
64851;SDS011;56050;55.558;-4.644;2023-05-21T02:23:11;13.38;;;3.42;;
64851;SDS011;56050;55.558;-4.644;2023-05-21T02:25:36;10.60;;;3.65;;
64851;SDS011;56050;55.558;-4.644;2023-05-21T02:28:02;11.40;;;3.42;;
64851;SDS011;56050;55.558;-4.644;2023-05-21T02:30:27;12.40;;;3.80;;
64851;SDS011;56050;55.558;-4.644;2023-05-21T02:32:53;10.20;;;3.20;;
64851;SDS011;56050;55.558;-4.644;2023-05-21T02:35:19;13.52;;;4.15;;
64851;SDS011;56050;55.558;-4.644;2023-05-21T02:37:44;16.00;;;3.33;;
64851;SDS011;56050;55.558;-4.644;2023-05-21T02:40:10;14.32;;;3.75;;
64851;SDS011;56050;55.558;-4.644;2023-05-21T02:42:36;9.95;;;3.28;;
64851;SDS011;56050;55.558;-4.644;2023-05-21T02:45:06;11.93;;;3.58;;
64851;SDS011;56050;55.558;-4.644;2023-05-21T02:47:35;10.02;;;3.55;;
64851;SDS011;56050;55.558;-4.644;2023-05-21T02:50:02;12.40;;;5.28;;
64851;SDS011;56050;55.558;-4.644;2023-05-21T02:52:29;9.68;;;4.03;;
64851;SDS011;56050;55.558;-4.644;2023-05-21T02:54:55;13.45;;;4.28;;
64851;SDS011;56050;55.558;-4.644;2023-05-21T02:57:20;12.27;;;3.45;;
64851;SDS011;56050;55.558;-4.644;2023-05-21T02:59:46;12.55;;;4.55;;
64851;SDS011;56050;55.558;-4.644;2023-05-21T03:02:11;10.07;;;3.45;;
64851;SDS011;56050;55.558;-4.644;2023-05-21T03:04:36;13.57;;;4.20;;
64851;SDS011;56050;55.558;-4.644;2023-05-21T03:07:03;12.82;;;3.70;;
64851;SDS011;56050;55.558;-4.644;2023-05-21T03:09:34;11.27;;;3.92;;
64851;SDS011;56050;55.558;-4.644;2023-05-21T03:11:59;11.85;;;3.63;;
64851;SDS011;56050;55.558;-4.644;2023-05-21T03:14:24;11.48;;;3.78;;
64851;SDS011;56050;55.558;-4.644;2023-05-21T03:16:50;13.35;;;3.30;;
64851;SDS011;56050;55.558;-4.644;2023-05-21T03:19:15;14.75;;;4.30;;
64851;SDS011;56050;55.558;-4.644;2023-05-21T03:21:41;13.77;;;4.10;;
64851;SDS011;56050;55.558;-4.644;2023-05-21T03:24:07;14.15;;;3.80;;
64851;SDS011;56050;55.558;-4.644;2023-05-21T03:26:33;11.70;;;4.97;;
64851;SDS011;56050;55.558;-4.644;2023-05-21T03:28:59;14.65;;;4.78;;
64851;SDS011;56050;55.558;-4.644;2023-05-21T03:31:25;18.38;;;5.55;;
64851;SDS011;56050;55.558;-4.644;2023-05-21T03:33:51;17.35;;;4.43;;
64851;SDS011;56050;55.558;-4.644;2023-05-21T03:36:17;16.75;;;5.38;;
64851;SDS011;56050;55.558;-4.644;2023-05-21T03:38:43;15.23;;;4.45;;
64851;SDS011;56050;55.558;-4.644;2023-05-21T03:41:09;13.38;;;5.20;;
64851;SDS011;56050;55.558;-4.644;2023-05-21T03:43:34;18.13;;;4.93;;
64851;SDS011;56050;55.558;-4.644;2023-05-21T03:46:00;14.52;;;4.30;;
64851;SDS011;56050;55.558;-4.644;2023-05-21T03:48:25;13.75;;;5.10;;
64851;SDS011;56050;55.558;-4.644;2023-05-21T03:50:51;17.77;;;5.03;;
64851;SDS011;56050;55.558;-4.644;2023-05-21T03:53:16;15.13;;;4.72;;
64851;SDS011;56050;55.558;-4.644;2023-05-21T03:55:42;14.00;;;4.55;;
64851;SDS011;56050;55.558;-4.644;2023-05-21T03:58:07;17.02;;;6.05;;
64851;SDS011;56050;55.558;-4.644;2023-05-21T04:00:34;16.48;;;5.32;;
64851;SDS011;56050;55.558;-4.644;2023-05-21T04:03:01;15.65;;;5.78;;
64851;SDS011;56050;55.558;-4.644;2023-05-21T04:05:27;15.40;;;5.00;;
64851;SDS011;56050;55.558;-4.644;2023-05-21T04:07:53;13.32;;;4.45;;
64851;SDS011;56050;55.558;-4.644;2023-05-21T04:10:18;13.48;;;3.83;;
64851;SDS011;56050;55.558;-4.644;2023-05-21T04:12:44;12.80;;;3.85;;
64851;SDS011;56050;55.558;-4.644;2023-05-21T04:15:10;12.68;;;4.45;;
64851;SDS011;56050;55.558;-4.644;2023-05-21T04:17:36;11.32;;;4.78;;
64851;SDS011;56050;55.558;-4.644;2023-05-21T04:20:01;12.50;;;4.18;;
64851;SDS011;56050;55.558;-4.644;2023-05-21T04:22:28;12.90;;;5.25;;
64851;SDS011;56050;55.558;-4.644;2023-05-21T04:24:53;17.02;;;4.00;;
64851;SDS011;56050;55.558;-4.644;2023-05-21T04:27:21;9.88;;;3.90;;
64851;SDS011;56050;55.558;-4.644;2023-05-21T04:29:50;10.20;;;3.58;;
64851;SDS011;56050;55.558;-4.644;2023-05-21T04:32:15;9.02;;;2.95;;
64851;SDS011;56050;55.558;-4.644;2023-05-21T04:34:42;12.65;;;3.75;;
64851;SDS011;56050;55.558;-4.644;2023-05-21T04:37:08;10.45;;;4.13;;
64851;SDS011;56050;55.558;-4.644;2023-05-21T04:39:34;9.88;;;3.85;;
64851;SDS011;56050;55.558;-4.644;2023-05-21T04:42:00;9.23;;;3.05;;
64851;SDS011;56050;55.558;-4.644;2023-05-21T04:44:28;10.73;;;3.58;;
64851;SDS011;56050;55.558;-4.644;2023-05-21T04:46:54;9.25;;;3.40;;
64851;SDS011;56050;55.558;-4.644;2023-05-21T04:49:21;9.30;;;3.30;;
64851;SDS011;56050;55.558;-4.644;2023-05-21T04:51:47;13.68;;;3.55;;
64851;SDS011;56050;55.558;-4.644;2023-05-21T04:54:13;10.07;;;3.47;;
64851;SDS011;56050;55.558;-4.644;2023-05-21T04:56:39;11.70;;;3.40;;
64851;SDS011;56050;55.558;-4.644;2023-05-21T04:59:04;10.13;;;3.22;;
64851;SDS011;56050;55.558;-4.644;2023-05-21T05:01:30;10.40;;;3.38;;
64851;SDS011;56050;55.558;-4.644;2023-05-21T05:03:56;10.80;;;2.95;;
64851;SDS011;56050;55.558;-4.644;2023-05-21T05:06:21;6.65;;;2.08;;
64851;SDS011;56050;55.558;-4.644;2023-05-21T05:08:49;7.63;;;2.42;;
64851;SDS011;56050;55.558;-4.644;2023-05-21T05:11:15;5.07;;;1.70;;
64851;SDS011;56050;55.558;-4.644;2023-05-21T05:13:40;3.60;;;1.58;;
64851;SDS011;56050;55.558;-4.644;2023-05-21T05:16:06;5.40;;;1.38;;
64851;SDS011;56050;55.558;-4.644;2023-05-21T05:18:32;5.32;;;1.50;;
64851;SDS011;56050;55.558;-4.644;2023-05-21T05:20:58;3.55;;;1.25;;
64851;SDS011;56050;55.558;-4.644;2023-05-21T05:23:25;2.97;;;1.15;;
64851;SDS011;56050;55.558;-4.644;2023-05-21T05:25:50;3.97;;;1.23;;
64851;SDS011;56050;55.558;-4.644;2023-05-21T05:28:16;4.80;;;1.58;;
64851;SDS011;56050;55.558;-4.644;2023-05-21T05:30:41;3.13;;;1.25;;
64851;SDS011;56050;55.558;-4.644;2023-05-21T05:33:06;5.80;;;1.17;;
64851;SDS011;56050;55.558;-4.644;2023-05-21T05:35:32;6.05;;;2.05;;
64851;SDS011;56050;55.558;-4.644;2023-05-21T05:37:57;4.72;;;1.67;;
64851;SDS011;56050;55.558;-4.644;2023-05-21T05:40:23;4.68;;;1.63;;
64851;SDS011;56050;55.558;-4.644;2023-05-21T05:42:48;6.30;;;2.33;;
64851;SDS011;56050;55.558;-4.644;2023-05-21T05:45:16;6.78;;;3.05;;
64851;SDS011;56050;55.558;-4.644;2023-05-21T05:47:42;5.40;;;1.63;;
64851;SDS011;56050;55.558;-4.644;2023-05-21T05:50:07;6.60;;;2.35;;
64851;SDS011;56050;55.558;-4.644;2023-05-21T05:52:33;5.40;;;2.35;;
64851;SDS011;56050;55.558;-4.644;2023-05-21T05:54:58;4.70;;;1.63;;
64851;SDS011;56050;55.558;-4.644;2023-05-21T05:57:24;5.55;;;1.98;;
64851;SDS011;56050;55.558;-4.644;2023-05-21T05:59:49;4.57;;;2.08;;
64851;SDS011;56050;55.558;-4.644;2023-05-21T06:02:15;4.03;;;1.58;;
64851;SDS011;56050;55.558;-4.644;2023-05-21T06:04:40;4.07;;;1.67;;
64851;SDS011;56050;55.558;-4.644;2023-05-21T06:07:06;3.85;;;1.67;;
64851;SDS011;56050;55.558;-4.644;2023-05-21T06:09:31;2.17;;;1.00;;
64851;SDS011;56050;55.558;-4.644;2023-05-21T06:11:57;2.75;;;0.82;;
64851;SDS011;56050;55.558;-4.644;2023-05-21T06:14:22;3.20;;;1.00;;
64851;SDS011;56050;55.558;-4.644;2023-05-21T06:16:48;2.53;;;0.95;;
64851;SDS011;56050;55.558;-4.644;2023-05-21T06:19:13;1.73;;;0.77;;
64851;SDS011;56050;55.558;-4.644;2023-05-21T06:21:39;2.28;;;0.50;;
64851;SDS011;56050;55.558;-4.644;2023-05-21T06:24:04;3.03;;;1.15;;
64851;SDS011;56050;55.558;-4.644;2023-05-21T06:26:30;1.98;;;0.88;;
64851;SDS011;56050;55.558;-4.644;2023-05-21T06:28:55;2.08;;;0.63;;
64851;SDS011;56050;55.558;-4.644;2023-05-21T06:31:21;1.92;;;0.88;;
64851;SDS011;56050;55.558;-4.644;2023-05-21T06:33:47;1.85;;;0.60;;
64851;SDS011;56050;55.558;-4.644;2023-05-21T06:36:13;1.83;;;1.23;;
64851;SDS011;56050;55.558;-4.644;2023-05-21T06:38:39;1.63;;;0.88;;
64851;SDS011;56050;55.558;-4.644;2023-05-21T06:41:04;1.42;;;0.50;;
64851;SDS011;56050;55.558;-4.644;2023-05-21T06:43:30;1.90;;;0.85;;
64851;SDS011;56050;55.558;-4.644;2023-05-21T06:45:56;1.98;;;0.88;;
64851;SDS011;56050;55.558;-4.644;2023-05-21T06:48:21;1.92;;;0.73;;
64851;SDS011;56050;55.558;-4.644;2023-05-21T06:50:47;2.38;;;0.80;;
64851;SDS011;56050;55.558;-4.644;2023-05-21T06:53:12;2.72;;;1.10;;
64851;SDS011;56050;55.558;-4.644;2023-05-21T06:55:40;2.65;;;1.25;;
64851;SDS011;56050;55.558;-4.644;2023-05-21T06:58:08;4.32;;;1.70;;
64851;SDS011;56050;55.558;-4.644;2023-05-21T07:00:34;3.70;;;2.20;;
64851;SDS011;56050;55.558;-4.644;2023-05-21T07:03:00;4.35;;;1.40;;
64851;SDS011;56050;55.558;-4.644;2023-05-21T07:05:25;3.42;;;1.05;;
64851;SDS011;56050;55.558;-4.644;2023-05-21T07:07:51;3.85;;;1.48;;
64851;SDS011;56050;55.558;-4.644;2023-05-21T07:10:16;2.47;;;1.25;;
64851;SDS011;56050;55.558;-4.644;2023-05-21T07:12:42;5.15;;;2.75;;
64851;SDS011;56050;55.558;-4.644;2023-05-21T07:15:07;4.15;;;1.65;;
64851;SDS011;56050;55.558;-4.644;2023-05-21T07:17:33;4.68;;;1.58;;
64851;SDS011;56050;55.558;-4.644;2023-05-21T07:19:59;5.72;;;2.20;;
64851;SDS011;56050;55.558;-4.644;2023-05-21T07:22:24;6.95;;;2.50;;
64851;SDS011;56050;55.558;-4.644;2023-05-21T07:24:50;8.05;;;2.60;;
64851;SDS011;56050;55.558;-4.644;2023-05-21T07:27:15;6.70;;;2.17;;
64851;SDS011;56050;55.558;-4.644;2023-05-21T07:29:40;7.47;;;2.35;;
64851;SDS011;56050;55.558;-4.644;2023-05-21T07:32:06;12.82;;;4.30;;
64851;SDS011;56050;55.558;-4.644;2023-05-21T07:34:31;9.15;;;3.50;;
64851;SDS011;56050;55.558;-4.644;2023-05-21T07:36:57;10.90;;;4.13;;
64851;SDS011;56050;55.558;-4.644;2023-05-21T07:39:22;11.18;;;3.22;;
64851;SDS011;56050;55.558;-4.644;2023-05-21T07:41:47;8.93;;;3.05;;
64851;SDS011;56050;55.558;-4.644;2023-05-21T07:44:13;9.45;;;4.03;;
64851;SDS011;56050;55.558;-4.644;2023-05-21T07:46:38;9.15;;;3.67;;
64851;SDS011;56050;55.558;-4.644;2023-05-21T07:49:04;8.98;;;3.15;;
64851;SDS011;56050;55.558;-4.644;2023-05-21T07:51:29;10.18;;;3.58;;
64851;SDS011;56050;55.558;-4.644;2023-05-21T07:53:55;11.40;;;3.38;;
64851;SDS011;56050;55.558;-4.644;2023-05-21T07:56:21;8.98;;;3.58;;
64851;SDS011;56050;55.558;-4.644;2023-05-21T07:58:46;9.93;;;4.05;;
64851;SDS011;56050;55.558;-4.644;2023-05-21T08:01:12;11.63;;;4.78;;
64851;SDS011;56050;55.558;-4.644;2023-05-21T08:03:37;9.18;;;3.05;;
64851;SDS011;56050;55.558;-4.644;2023-05-21T08:06:03;10.10;;;3.13;;
64851;SDS011;56050;55.558;-4.644;2023-05-21T08:08:28;10.07;;;3.42;;
64851;SDS011;56050;55.558;-4.644;2023-05-21T08:10:54;11.88;;;4.03;;
64851;SDS011;56050;55.558;-4.644;2023-05-21T08:13:20;17.00;;;6.93;;
64851;SDS011;56050;55.558;-4.644;2023-05-21T08:15:46;17.83;;;6.35;;
64851;SDS011;56050;55.558;-4.644;2023-05-21T08:18:12;14.25;;;4.85;;
64851;SDS011;56050;55.558;-4.644;2023-05-21T08:20:37;10.57;;;4.30;;
64851;SDS011;56050;55.558;-4.644;2023-05-21T08:23:03;8.05;;;3.40;;
64851;SDS011;56050;55.558;-4.644;2023-05-21T08:25:28;8.93;;;3.55;;
64851;SDS011;56050;55.558;-4.644;2023-05-21T08:27:54;9.52;;;3.28;;
64851;SDS011;56050;55.558;-4.644;2023-05-21T08:30:20;10.75;;;3.10;;
64851;SDS011;56050;55.558;-4.644;2023-05-21T08:32:46;10.80;;;3.05;;
64851;SDS011;56050;55.558;-4.644;2023-05-21T08:35:12;8.57;;;3.65;;
64851;SDS011;56050;55.558;-4.644;2023-05-21T08:37:37;9.65;;;3.53;;
64851;SDS011;56050;55.558;-4.644;2023-05-21T08:40:03;8.77;;;3.40;;
64851;SDS011;56050;55.558;-4.644;2023-05-21T08:45:10;7.38;;;3.08;;
64851;SDS011;56050;55.558;-4.644;2023-05-21T08:47:37;9.10;;;3.03;;
64851;SDS011;56050;55.558;-4.644;2023-05-21T08:50:09;6.88;;;2.60;;
64851;SDS011;56050;55.558;-4.644;2023-05-21T08:52:37;7.55;;;2.85;;
64851;SDS011;56050;55.558;-4.644;2023-05-21T08:55:03;11.70;;;3.20;;
64851;SDS011;56050;55.558;-4.644;2023-05-21T08:57:29;10.25;;;3.65;;
64851;SDS011;56050;55.558;-4.644;2023-05-21T08:59:55;10.98;;;3.28;;
64851;SDS011;56050;55.558;-4.644;2023-05-21T09:02:21;8.13;;;2.50;;
64851;SDS011;56050;55.558;-4.644;2023-05-21T09:04:49;5.47;;;2.38;;
64851;SDS011;56050;55.558;-4.644;2023-05-21T09:07:21;4.82;;;1.65;;
64851;SDS011;56050;55.558;-4.644;2023-05-21T09:10:00;3.85;;;1.73;;
64851;SDS011;56050;55.558;-4.644;2023-05-21T09:12:35;5.40;;;1.50;;
64851;SDS011;56050;55.558;-4.644;2023-05-21T09:15:00;2.35;;;0.77;;
64851;SDS011;56050;55.558;-4.644;2023-05-21T09:17:26;3.65;;;0.82;;
64851;SDS011;56050;55.558;-4.644;2023-05-21T09:22:42;4.30;;;1.30;;
64851;SDS011;56050;55.558;-4.644;2023-05-21T09:25:15;2.75;;;1.20;;
64851;SDS011;56050;55.558;-4.644;2023-05-21T09:27:43;5.40;;;2.10;;
64851;SDS011;56050;55.558;-4.644;2023-05-21T09:30:09;3.92;;;1.20;;
64851;SDS011;56050;55.558;-4.644;2023-05-21T09:32:37;3.65;;;2.03;;
64851;SDS011;56050;55.558;-4.644;2023-05-21T09:35:13;3.35;;;1.35;;
64851;SDS011;56050;55.558;-4.644;2023-05-21T09:37:39;3.35;;;1.15;;
64851;SDS011;56050;55.558;-4.644;2023-05-21T09:42:46;3.70;;;1.40;;
64851;SDS011;56050;55.558;-4.644;2023-05-21T09:45:16;3.58;;;1.33;;
64851;SDS011;56050;55.558;-4.644;2023-05-21T09:47:43;4.13;;;1.27;;
64851;SDS011;56050;55.558;-4.644;2023-05-21T09:50:11;3.63;;;1.55;;
64851;SDS011;56050;55.558;-4.644;2023-05-21T09:52:37;3.67;;;1.30;;
64851;SDS011;56050;55.558;-4.644;2023-05-21T09:55:07;2.90;;;1.92;;
64851;SDS011;56050;55.558;-4.644;2023-05-21T09:57:43;2.80;;;1.58;;
64851;SDS011;56050;55.558;-4.644;2023-05-21T10:00:18;3.65;;;1.17;;
64851;SDS011;56050;55.558;-4.644;2023-05-21T10:02:45;3.88;;;1.27;;
64851;SDS011;56050;55.558;-4.644;2023-05-21T10:05:15;5.03;;;2.42;;
64851;SDS011;56050;55.558;-4.644;2023-05-21T10:07:42;2.95;;;1.08;;
64851;SDS011;56050;55.558;-4.644;2023-05-21T10:10:13;3.83;;;1.35;;
64851;SDS011;56050;55.558;-4.644;2023-05-21T10:13:02;3.85;;;1.10;;
64851;SDS011;56050;55.558;-4.644;2023-05-21T10:15:29;3.28;;;1.20;;
64851;SDS011;56050;55.558;-4.644;2023-05-21T10:17:58;3.42;;;1.73;;
64851;SDS011;56050;55.558;-4.644;2023-05-21T10:20:25;3.47;;;1.80;;
64851;SDS011;56050;55.558;-4.644;2023-05-21T10:22:51;3.63;;;1.38;;
64851;SDS011;56050;55.558;-4.644;2023-05-21T10:25:17;2.92;;;0.95;;
64851;SDS011;56050;55.558;-4.644;2023-05-21T10:27:44;3.13;;;1.38;;
64851;SDS011;56050;55.558;-4.644;2023-05-21T10:30:11;3.47;;;1.30;;
64851;SDS011;56050;55.558;-4.644;2023-05-21T10:32:36;3.10;;;0.95;;
64851;SDS011;56050;55.558;-4.644;2023-05-21T10:35:04;3.60;;;1.30;;
64851;SDS011;56050;55.558;-4.644;2023-05-21T10:37:32;2.65;;;1.45;;
64851;SDS011;56050;55.558;-4.644;2023-05-21T10:39:58;2.65;;;0.60;;
64851;SDS011;56050;55.558;-4.644;2023-05-21T10:47:46;2.88;;;1.42;;
64851;SDS011;56050;55.558;-4.644;2023-05-21T10:56:28;3.50;;;1.80;;
64851;SDS011;56050;55.558;-4.644;2023-05-21T11:01:47;3.10;;;1.40;;
64851;SDS011;56050;55.558;-4.644;2023-05-21T11:04:16;2.53;;;0.93;;
64851;SDS011;56050;55.558;-4.644;2023-05-21T11:06:46;3.45;;;1.45;;
64851;SDS011;56050;55.558;-4.644;2023-05-21T11:09:15;2.75;;;0.93;;
64851;SDS011;56050;55.558;-4.644;2023-05-21T11:11:41;1.67;;;0.98;;
64851;SDS011;56050;55.558;-4.644;2023-05-21T11:17:00;2.72;;;1.27;;
64851;SDS011;56050;55.558;-4.644;2023-05-21T11:19:37;2.22;;;0.85;;
64851;SDS011;56050;55.558;-4.644;2023-05-21T11:22:09;2.72;;;0.90;;
64851;SDS011;56050;55.558;-4.644;2023-05-21T11:24:44;2.95;;;1.10;;
64851;SDS011;56050;55.558;-4.644;2023-05-21T11:27:09;2.67;;;1.17;;
64851;SDS011;56050;55.558;-4.644;2023-05-21T11:32:09;2.72;;;0.98;;
64851;SDS011;56050;55.558;-4.644;2023-05-21T11:34:46;2.78;;;1.23;;
64851;SDS011;56050;55.558;-4.644;2023-05-21T11:40:21;3.30;;;1.27;;
64851;SDS011;56050;55.558;-4.644;2023-05-21T11:42:50;2.78;;;1.35;;
64851;SDS011;56050;55.558;-4.644;2023-05-21T11:45:18;2.78;;;1.20;;
64851;SDS011;56050;55.558;-4.644;2023-05-21T11:47:44;3.50;;;1.00;;
64851;SDS011;56050;55.558;-4.644;2023-05-21T11:50:12;2.72;;;0.95;;
64851;SDS011;56050;55.558;-4.644;2023-05-21T11:52:38;2.28;;;0.85;;
64851;SDS011;56050;55.558;-4.644;2023-05-21T11:55:04;3.88;;;1.58;;
64851;SDS011;56050;55.558;-4.644;2023-05-21T11:57:31;2.65;;;1.42;;
64851;SDS011;56050;55.558;-4.644;2023-05-21T11:59:57;4.13;;;1.75;;
64851;SDS011;56050;55.558;-4.644;2023-05-21T12:02:24;2.95;;;1.20;;
64851;SDS011;56050;55.558;-4.644;2023-05-21T12:04:53;3.90;;;1.27;;
64851;SDS011;56050;55.558;-4.644;2023-05-21T12:07:25;3.38;;;1.67;;
64851;SDS011;56050;55.558;-4.644;2023-05-21T12:09:52;3.53;;;1.58;;
64851;SDS011;56050;55.558;-4.644;2023-05-21T12:12:18;3.75;;;1.27;;
64851;SDS011;56050;55.558;-4.644;2023-05-21T12:14:48;2.92;;;1.48;;
64851;SDS011;56050;55.558;-4.644;2023-05-21T12:17:18;2.95;;;1.25;;
64851;SDS011;56050;55.558;-4.644;2023-05-21T12:19:45;3.05;;;1.30;;
64851;SDS011;56050;55.558;-4.644;2023-05-21T12:22:11;4.55;;;1.30;;
64851;SDS011;56050;55.558;-4.644;2023-05-21T12:24:39;2.70;;;1.58;;
64851;SDS011;56050;55.558;-4.644;2023-05-21T12:27:05;2.63;;;0.70;;
64851;SDS011;56050;55.558;-4.644;2023-05-21T12:29:33;2.78;;;1.02;;
64851;SDS011;56050;55.558;-4.644;2023-05-21T12:32:03;3.38;;;1.63;;
64851;SDS011;56050;55.558;-4.644;2023-05-21T12:35:06;2.58;;;1.00;;
64851;SDS011;56050;55.558;-4.644;2023-05-21T12:37:25;3.42;;;0.90;;
64851;SDS011;56050;55.558;-4.644;2023-05-21T12:39:52;2.72;;;0.98;;
64851;SDS011;56050;55.558;-4.644;2023-05-21T12:42:25;2.30;;;1.08;;
64851;SDS011;56050;55.558;-4.644;2023-05-21T12:44:52;2.58;;;1.05;;
64851;SDS011;56050;55.558;-4.644;2023-05-21T12:47:18;2.75;;;1.00;;
64851;SDS011;56050;55.558;-4.644;2023-05-21T12:49:53;3.65;;;1.10;;
64851;SDS011;56050;55.558;-4.644;2023-05-21T12:52:22;1.55;;;0.82;;
64851;SDS011;56050;55.558;-4.644;2023-05-21T12:54:49;2.47;;;1.02;;
64851;SDS011;56050;55.558;-4.644;2023-05-21T12:57:23;3.72;;;1.85;;
64851;SDS011;56050;55.558;-4.644;2023-05-21T12:59:53;2.78;;;1.20;;
64851;SDS011;56050;55.558;-4.644;2023-05-21T13:02:22;2.38;;;1.08;;
64851;SDS011;56050;55.558;-4.644;2023-05-21T13:07:21;2.80;;;1.10;;
64851;SDS011;56050;55.558;-4.644;2023-05-21T13:09:48;3.45;;;0.90;;
64851;SDS011;56050;55.558;-4.644;2023-05-21T13:12:14;2.97;;;1.33;;
64851;SDS011;56050;55.558;-4.644;2023-05-21T13:14:39;2.15;;;1.02;;
64851;SDS011;56050;55.558;-4.644;2023-05-21T13:17:05;2.67;;;1.33;;
64851;SDS011;56050;55.558;-4.644;2023-05-21T13:19:30;2.00;;;1.10;;
64851;SDS011;56050;55.558;-4.644;2023-05-21T13:21:56;3.05;;;1.85;;
64851;SDS011;56050;55.558;-4.644;2023-05-21T13:24:21;1.95;;;0.60;;
64851;SDS011;56050;55.558;-4.644;2023-05-21T13:26:47;2.67;;;1.25;;
64851;SDS011;56050;55.558;-4.644;2023-05-21T13:29:12;1.65;;;1.20;;
64851;SDS011;56050;55.558;-4.644;2023-05-21T13:31:41;2.72;;;1.08;;
64851;SDS011;56050;55.558;-4.644;2023-05-21T13:34:06;2.35;;;0.85;;
64851;SDS011;56050;55.558;-4.644;2023-05-21T13:36:32;2.10;;;0.88;;
64851;SDS011;56050;55.558;-4.644;2023-05-21T13:38:58;1.88;;;0.55;;
64851;SDS011;56050;55.558;-4.644;2023-05-21T13:41:23;2.83;;;1.67;;
64851;SDS011;56050;55.558;-4.644;2023-05-21T13:43:48;2.22;;;0.90;;
64851;SDS011;56050;55.558;-4.644;2023-05-21T13:46:14;2.65;;;1.08;;
64851;SDS011;56050;55.558;-4.644;2023-05-21T13:48:39;2.40;;;0.82;;
64851;SDS011;56050;55.558;-4.644;2023-05-21T13:51:07;2.38;;;1.17;;
64851;SDS011;56050;55.558;-4.644;2023-05-21T13:53:32;1.85;;;0.63;;
64851;SDS011;56050;55.558;-4.644;2023-05-21T13:55:58;1.92;;;0.85;;
64851;SDS011;56050;55.558;-4.644;2023-05-21T13:58:23;2.28;;;1.00;;
64851;SDS011;56050;55.558;-4.644;2023-05-21T14:00:51;2.63;;;1.08;;
64851;SDS011;56050;55.558;-4.644;2023-05-21T14:03:17;1.98;;;0.75;;
64851;SDS011;56050;55.558;-4.644;2023-05-21T14:05:42;3.15;;;0.90;;
64851;SDS011;56050;55.558;-4.644;2023-05-21T14:08:08;2.13;;;0.85;;
64851;SDS011;56050;55.558;-4.644;2023-05-21T14:10:33;3.65;;;0.57;;
64851;SDS011;56050;55.558;-4.644;2023-05-21T14:12:59;1.50;;;0.70;;
64851;SDS011;56050;55.558;-4.644;2023-05-21T14:15:24;2.08;;;1.13;;
64851;SDS011;56050;55.558;-4.644;2023-05-21T14:17:50;2.42;;;1.13;;
64851;SDS011;56050;55.558;-4.644;2023-05-21T14:20:16;1.83;;;0.63;;
64851;SDS011;56050;55.558;-4.644;2023-05-21T14:22:41;1.30;;;0.60;;
64851;SDS011;56050;55.558;-4.644;2023-05-21T14:25:07;2.17;;;0.70;;
64851;SDS011;56050;55.558;-4.644;2023-05-21T14:27:33;1.48;;;0.60;;
64851;SDS011;56050;55.558;-4.644;2023-05-21T14:29:58;1.80;;;0.68;;
64851;SDS011;56050;55.558;-4.644;2023-05-21T14:32:23;2.28;;;1.05;;
64851;SDS011;56050;55.558;-4.644;2023-05-21T14:34:49;3.00;;;1.48;;
64851;SDS011;56050;55.558;-4.644;2023-05-21T14:37:14;1.88;;;0.85;;
64851;SDS011;56050;55.558;-4.644;2023-05-21T14:39:40;2.67;;;0.60;;
64851;SDS011;56050;55.558;-4.644;2023-05-21T14:42:05;2.22;;;0.88;;
64851;SDS011;56050;55.558;-4.644;2023-05-21T14:44:31;2.50;;;0.70;;
64851;SDS011;56050;55.558;-4.644;2023-05-21T14:46:56;1.77;;;0.85;;
64851;SDS011;56050;55.558;-4.644;2023-05-21T14:49:22;1.52;;;0.73;;
64851;SDS011;56050;55.558;-4.644;2023-05-21T14:51:47;1.38;;;0.38;;
64851;SDS011;56050;55.558;-4.644;2023-05-21T14:54:12;2.05;;;0.75;;
64851;SDS011;56050;55.558;-4.644;2023-05-21T14:56:38;1.48;;;0.68;;
64851;SDS011;56050;55.558;-4.644;2023-05-21T14:59:04;1.77;;;0.68;;
64851;SDS011;56050;55.558;-4.644;2023-05-21T15:01:29;1.90;;;1.00;;
64851;SDS011;56050;55.558;-4.644;2023-05-21T15:03:54;1.77;;;0.77;;
64851;SDS011;56050;55.558;-4.644;2023-05-21T15:06:22;1.88;;;0.95;;